createdAt,value
2022-10-09T00:01:10.369Z,1.00
2022-10-09T00:06:26.505Z,1.00
2022-10-09T00:11:32.781Z,1.00
2022-10-09T00:16:38.422Z,1.00
2022-10-09T00:21:44.565Z,1.00
2022-10-09T00:26:49.947Z,1.00
2022-10-09T00:31:54.919Z,1.00
2022-10-09T00:37:00.816Z,1.00
2022-10-09T00:42:06.124Z,1.00
2022-10-09T00:47:15.377Z,1.00
2022-10-09T00:52:22.486Z,1.00
2022-10-09T00:57:28.307Z,1.00
2022-10-09T01:02:34.143Z,1.00
2022-10-09T01:07:41.499Z,1.00
2022-10-09T01:12:55.173Z,1.00
2022-10-09T01:18:06.479Z,1.00
2022-10-09T01:23:24.429Z,1.00
2022-10-09T01:28:32.101Z,1.00
2022-10-09T01:33:39.711Z,1.00
2022-10-09T01:38:45.798Z,1.00
2022-10-09T01:43:51.877Z,1.00
2022-10-09T01:49:00.191Z,1.00
2022-10-09T01:54:09.055Z,1.00
2022-10-09T01:59:17.402Z,1.00
2022-10-09T02:04:24.077Z,99.90
2022-10-09T02:09:31.091Z,1.00
2022-10-09T02:14:37.414Z,1.00
2022-10-09T02:19:54.369Z,1.00
2022-10-09T02:25:02.706Z,1.00
2022-10-09T02:30:12.716Z,1.00
2022-10-09T02:35:17.953Z,1.00
2022-10-09T02:40:23.010Z,1.00
2022-10-09T02:45:28.365Z,1.00
2022-10-09T02:50:34.098Z,64.90
2022-10-09T02:55:39.487Z,74.60
2022-10-09T03:00:46.438Z,99.10
2022-10-09T03:06:04.236Z,98.80
2022-10-09T03:11:12.631Z,99.90
2022-10-09T03:16:21.637Z,99.90
2022-10-09T03:21:28.118Z,1.00
2022-10-09T03:26:34.067Z,1.00
2022-10-09T03:31:51.753Z,1.00
2022-10-09T03:36:46.935Z,1.30
2022-10-09T03:41:51.886Z,96.40
2022-10-09T03:46:58.007Z,99.90
2022-10-09T03:52:03.217Z,22.50
2022-10-09T03:57:10.580Z,43.10
2022-10-09T04:02:16.345Z,99.90
2022-10-09T04:07:21.446Z,99.90
2022-10-09T04:12:26.906Z,99.90
2022-10-09T04:17:32.671Z,82.70
2022-10-09T04:22:37.834Z,99.90
2022-10-09T04:27:43.864Z,99.90
2022-10-09T04:32:49.597Z,1.00
2022-10-09T04:37:55.825Z,99.90
2022-10-09T04:43:00.702Z,1.00
2022-10-09T04:48:07.749Z,22.50
2022-10-09T04:53:15.100Z,7.90
2022-10-09T04:58:21.787Z,1.00
2022-10-09T05:03:27.735Z,29.20
2022-10-09T05:08:33.528Z,47.50
2022-10-09T05:13:41.458Z,99.90
2022-10-09T05:18:49.935Z,99.90
2022-10-09T05:23:57.087Z,99.90
2022-10-09T05:29:02.749Z,99.90
2022-10-09T05:34:07.988Z,99.90
2022-10-09T05:39:13.382Z,99.90
2022-10-09T05:44:18.961Z,99.90
2022-10-09T05:49:24.183Z,99.90
2022-10-09T05:54:29.951Z,99.90
2022-10-09T05:59:35.412Z,99.90
2022-10-09T06:04:42.018Z,99.90
2022-10-09T06:09:47.769Z,99.90
2022-10-09T06:14:52.558Z,99.90
2022-10-09T06:19:57.767Z,99.90
2022-10-09T06:25:03.338Z,99.90
2022-10-09T06:30:09.545Z,99.90
2022-10-09T06:35:14.561Z,99.90
2022-10-09T06:40:20.605Z,99.90
2022-10-09T06:45:26.309Z,99.90
2022-10-09T06:50:31.313Z,99.90
2022-10-09T06:55:37.495Z,99.90
2022-10-09T07:00:42.480Z,99.90
2022-10-09T07:05:47.327Z,99.90
2022-10-09T07:10:52.498Z,99.90
2022-10-09T07:16:01.331Z,99.90
2022-10-09T07:21:06.438Z,99.90
2022-10-09T07:26:14.806Z,99.90
2022-10-09T07:31:21.070Z,1.00
2022-10-09T07:36:27.636Z,1.00
2022-10-09T07:41:32.825Z,1.00
2022-10-09T07:46:38.279Z,1.00
2022-10-09T07:51:43.605Z,1.00
2022-10-09T07:56:49.722Z,1.00
2022-10-09T08:01:55.750Z,1.00
2022-10-09T08:07:01.228Z,1.00
2022-10-09T08:12:06.886Z,1.00
2022-10-09T08:17:12.181Z,1.00
2022-10-09T08:22:17.609Z,1.00
2022-10-09T08:27:22.787Z,1.00
2022-10-09T08:32:27.695Z,1.00
2022-10-09T08:37:33.062Z,1.00
2022-10-09T08:42:47.816Z,1.00
2022-10-09T08:47:56.756Z,1.00
2022-10-09T08:53:05.357Z,99.90
2022-10-09T08:58:14.444Z,1.00
2022-10-09T09:03:37.788Z,1.00
2022-10-09T09:08:58.788Z,99.90
2022-10-09T09:14:22.090Z,99.90
2022-10-09T09:19:57.355Z,99.90
2022-10-09T09:25:05.402Z,99.90
2022-10-09T09:30:21.224Z,20.70
2022-10-09T09:36:00.223Z,99.90
2022-10-09T09:41:06.628Z,99.90
2022-10-09T09:46:18.340Z,99.90
2022-10-09T09:51:29.717Z,99.90
2022-10-09T09:57:06.828Z,99.90
2022-10-09T10:01:47.046Z,1.00
2022-10-09T10:06:52.343Z,1.00
2022-10-09T10:12:03.841Z,99.90
2022-10-09T10:17:16.345Z,99.90
2022-10-09T10:22:29.360Z,1.00
2022-10-09T10:27:59.759Z,1.00
2022-10-09T10:33:10.502Z,1.00
2022-10-09T10:38:19.322Z,1.00
2022-10-09T10:43:48.706Z,99.90
2022-10-09T10:48:54.780Z,99.90
2022-10-09T10:54:03.296Z,99.90
2022-10-09T10:59:29.888Z,99.90
2022-10-09T11:04:50.113Z,99.90
2022-10-09T11:10:06.880Z,99.90
2022-10-09T11:15:37.933Z,99.90
2022-10-09T11:21:03.625Z,99.90
2022-10-09T11:26:23.956Z,99.90
2022-10-09T11:31:42.209Z,99.90
2022-10-09T11:36:48.452Z,99.90
2022-10-09T11:41:55.502Z,99.90
2022-10-09T11:47:09.676Z,99.90
2022-10-09T11:52:30.235Z,99.90
2022-10-09T11:57:37.619Z,99.90
2022-10-09T12:02:44.529Z,1.00
2022-10-09T12:07:50.301Z,1.00
2022-10-09T12:12:58.936Z,1.00
2022-10-09T12:18:06.868Z,1.00
2022-10-09T12:23:29.015Z,99.90
2022-10-09T12:28:37.281Z,99.90
2022-10-09T12:33:49.146Z,99.90
2022-10-09T12:38:54.218Z,99.90
2022-10-09T12:44:00.692Z,99.90
2022-10-09T12:49:09.317Z,99.90
2022-10-09T12:54:16.807Z,99.90
2022-10-09T12:59:23.780Z,99.90
2022-10-09T13:04:31.837Z,99.90
2022-10-09T13:09:40.850Z,99.90
2022-10-09T13:14:50.246Z,99.90
2022-10-09T13:20:00.325Z,99.90
2022-10-09T13:25:06.433Z,99.90
2022-10-09T13:30:12.953Z,99.90
2022-10-09T13:35:19.307Z,63.10
2022-10-09T13:40:25.156Z,6.30
2022-10-09T13:45:30.548Z,1.00
2022-10-09T13:50:36.154Z,99.90
2022-10-09T13:55:42.124Z,99.90
2022-10-09T14:00:46.767Z,99.90
2022-10-09T14:05:53.677Z,99.90
2022-10-09T14:11:01.944Z,99.90
2022-10-09T14:16:08.076Z,99.90
2022-10-09T14:21:15.859Z,1.00
2022-10-09T14:26:21.551Z,99.90
2022-10-09T14:31:27.700Z,99.90
2022-10-09T14:36:33.712Z,1.00
2022-10-09T14:41:38.857Z,99.90
2022-10-09T14:46:43.805Z,99.90
2022-10-09T14:51:48.856Z,99.90
2022-10-09T14:56:55.759Z,83.10
2022-10-09T15:02:00.906Z,99.90
2022-10-09T15:07:06.267Z,99.90
2022-10-09T15:12:12.035Z,99.90
2022-10-09T15:17:17.087Z,99.90
2022-10-09T15:22:22.114Z,99.90
2022-10-09T15:27:27.494Z,92.50
2022-10-09T15:32:33.776Z,99.90
2022-10-09T15:37:40.640Z,99.90
2022-10-09T15:42:48.087Z,16.40
2022-10-09T15:47:55.999Z,83.10
2022-10-09T15:53:03.735Z,99.90
2022-10-09T15:58:11.054Z,1.00
2022-10-09T16:03:19.020Z,1.00
2022-10-09T16:08:24.978Z,9.60
2022-10-09T16:13:30.621Z,1.00
2022-10-09T16:18:36.143Z,61.60
2022-10-09T16:23:43.653Z,86.40
2022-10-09T16:28:50.315Z,99.90
2022-10-09T16:33:56.985Z,99.90
2022-10-09T16:39:03.594Z,99.90
2022-10-09T16:44:14.326Z,99.90
2022-10-09T16:49:25.226Z,1.00
2022-10-09T16:54:32.493Z,1.00
2022-10-09T16:59:37.543Z,1.00
2022-10-09T17:04:44.134Z,1.00
2022-10-09T17:09:50.719Z,1.00
2022-10-09T17:14:58.330Z,1.00
2022-10-09T17:20:04.820Z,1.00
2022-10-09T17:25:14.470Z,1.00
2022-10-09T17:30:20.962Z,1.00
2022-10-09T17:35:27.140Z,1.00
2022-10-09T17:40:39.222Z,1.00
2022-10-09T17:45:47.186Z,1.00
2022-10-09T17:50:54.965Z,1.00
2022-10-09T17:56:03.939Z,1.00
2022-10-09T18:01:12.620Z,1.00
2022-10-09T18:06:23.256Z,1.00
2022-10-09T18:11:30.173Z,1.00
2022-10-09T18:16:38.796Z,1.00
2022-10-09T18:21:50.415Z,1.00
2022-10-09T18:26:56.341Z,1.00
2022-10-09T18:32:03.053Z,1.00
2022-10-09T18:37:09.095Z,1.00
2022-10-09T18:42:15.032Z,1.00
2022-10-09T18:47:26.142Z,1.00
2022-10-09T18:52:32.172Z,1.00
2022-10-09T18:57:41.534Z,1.00
2022-10-09T19:02:47.261Z,1.00
2022-10-09T19:07:54.602Z,1.00
2022-10-09T19:13:00.878Z,1.00
2022-10-09T19:18:08.181Z,1.00
2022-10-09T19:23:15.204Z,1.00
2022-10-09T19:28:22.024Z,1.00
2022-10-09T19:33:29.435Z,1.00
2022-10-09T19:38:36.682Z,1.00
2022-10-09T19:43:42.592Z,1.00
2022-10-09T19:48:47.602Z,1.00
2022-10-09T19:53:55.731Z,1.00
2022-10-09T19:59:03.692Z,1.00
2022-10-09T20:04:11.960Z,1.00
2022-10-09T20:09:18.020Z,1.00
2022-10-09T20:14:26.824Z,1.00
2022-10-09T20:19:31.854Z,1.00
2022-10-09T20:24:37.202Z,1.00
2022-10-09T20:29:43.376Z,1.00
2022-10-09T20:34:50.276Z,1.00
2022-10-09T20:39:55.985Z,1.00
2022-10-09T20:45:02.017Z,1.00
2022-10-09T20:50:08.295Z,1.00
2022-10-09T20:55:13.653Z,1.00
2022-10-09T21:00:18.541Z,1.00
2022-10-09T21:05:23.746Z,1.00
2022-10-09T21:10:30.218Z,1.00
2022-10-09T21:15:38.274Z,1.00
2022-10-09T21:20:44.175Z,1.00
2022-10-09T21:25:54.922Z,1.00
2022-10-09T21:31:00.385Z,1.00
2022-10-09T21:36:10.655Z,1.00
2022-10-09T21:41:16.426Z,1.00
2022-10-09T21:46:22.643Z,1.00
2022-10-09T21:51:28.778Z,1.00
2022-10-09T21:56:34.649Z,1.00
2022-10-09T22:01:39.813Z,1.00
2022-10-09T22:06:44.961Z,1.00
2022-10-09T22:11:50.734Z,1.00
2022-10-09T22:16:55.675Z,1.00
2022-10-09T22:22:00.932Z,1.00
2022-10-09T22:27:07.396Z,1.00
2022-10-09T22:32:14.414Z,1.00
2022-10-09T22:37:19.673Z,1.00
2022-10-09T22:42:25.300Z,1.00
2022-10-09T22:47:30.173Z,1.00
2022-10-09T22:52:35.036Z,1.00
2022-10-09T22:57:40.184Z,1.00
2022-10-09T23:02:45.068Z,1.00
2022-10-09T23:07:50.804Z,1.00
2022-10-09T23:12:55.852Z,1.00
2022-10-09T23:18:01.044Z,1.00
2022-10-09T23:23:07.594Z,1.00
2022-10-09T23:28:13.324Z,1.00
2022-10-09T23:33:18.923Z,1.00
2022-10-09T23:38:24.472Z,1.00
2022-10-09T23:43:30.769Z,1.00
2022-10-09T23:48:36.630Z,1.00
2022-10-09T23:53:42.816Z,1.00
2022-10-09T23:58:50.086Z,1.00
